Time;durP1;ratioP1;P1;durP2;ratioP2;P2;SDS_P1;SDS_P2;PMS_P1;PMS_P2;Temp;Humidity;BMP_temperature;BMP_pressure;BME280_temperature;BME280_humidity;BME280_pressure;Samples;Min_cycle;Max_cycle;Signal;HPM_P1;HPM_P2
2023/10/14 00:01:04;;;;;;;10.60;2.15;;;13.10;99.90;;;;;;5044547;28;20203;-58
2023/10/14 00:03:33;;;;;;;8.18;2.03;;;13.10;99.90;;;;;;5025890;28;20201;-60
2023/10/14 00:06:06;;;;;;;14.18;1.98;;;13.00;99.90;;;;;;5044812;28;20187;-59
2023/10/14 00:08:33;;;;;;;11.45;2.65;;;13.00;99.90;;;;;;5044306;28;20183;-59
2023/10/14 00:11:01;;;;;;;13.38;2.53;;;12.90;99.90;;;;;;5046780;28;20183;-58
2023/10/14 00:13:41;;;;;;;9.82;2.30;;;12.80;99.90;;;;;;5048055;28;20262;-60
2023/10/14 00:16:11;;;;;;;12.55;2.40;;;12.80;99.90;;;;;;5045138;28;20193;-60
2023/10/14 00:18:42;;;;;;;13.13;2.67;;;12.80;99.90;;;;;;5045922;28;20336;-59
2023/10/14 00:21:12;;;;;;;12.02;2.60;;;12.70;99.90;;;;;;5028655;28;20253;-60
2023/10/14 00:23:38;;;;;;;11.60;2.15;;;12.70;99.90;;;;;;5049071;28;20188;-59
2023/10/14 00:26:06;;;;;;;16.20;2.72;;;12.70;99.90;;;;;;5039857;28;20720;-59
2023/10/14 00:28:32;;;;;;;13.23;2.40;;;12.70;99.90;;;;;;5032171;28;20194;-60
2023/10/14 00:30:58;;;;;;;12.40;1.92;;;12.60;99.90;;;;;;5046551;28;20183;-60
2023/10/14 00:33:24;;;;;;;12.05;2.20;;;12.60;99.90;;;;;;5048508;28;20225;-59
2023/10/14 00:35:55;;;;;;;11.10;2.33;;;12.50;99.90;;;;;;5026651;28;20192;-59
2023/10/14 00:38:23;;;;;;;14.65;2.63;;;12.50;99.90;;;;;;5036854;28;20175;-59
2023/10/14 00:40:51;;;;;;;17.63;2.70;;;12.40;99.90;;;;;;5044264;28;20225;-59
2023/10/14 00:43:20;;;;;;;15.07;2.50;;;12.30;99.90;;;;;;5048821;28;20257;-59
2023/10/14 00:45:47;;;;;;;10.32;2.50;;;12.30;99.90;;;;;;5029501;28;20265;-61
2023/10/14 00:48:19;;;;;;;14.82;2.42;;;12.30;99.90;;;;;;5021932;28;20274;-59
2023/10/14 00:50:45;;;;;;;18.08;2.80;;;12.30;99.90;;;;;;5041318;28;20235;-61
2023/10/14 00:53:12;;;;;;;17.10;2.65;;;12.30;99.90;;;;;;5021368;28;20198;-60
2023/10/14 00:55:51;;;;;;;16.95;3.03;;;12.20;99.90;;;;;;5041368;28;20190;-60
2023/10/14 00:58:21;;;;;;;11.98;2.80;;;12.20;99.90;;;;;;5039952;28;20206;-61
2023/10/14 01:00:57;;;;;;;20.55;3.15;;;12.10;99.90;;;;;;5019963;28;20223;-60
2023/10/14 01:03:27;;;;;;;14.07;2.83;;;12.00;99.90;;;;;;5043944;28;20178;-61
2023/10/14 01:05:56;;;;;;;16.50;2.95;;;12.00;99.90;;;;;;5050764;28;20683;-59
2023/10/14 01:08:25;;;;;;;18.60;2.70;;;11.90;99.90;;;;;;5047292;28;20190;-61
2023/10/14 01:10:52;;;;;;;12.05;2.80;;;11.90;99.90;;;;;;5048080;28;20179;-61
2023/10/14 01:13:22;;;;;;;13.13;2.45;;;11.90;99.90;;;;;;5053858;28;20264;-61
2023/10/14 01:15:58;;;;;;;13.45;3.10;;;11.80;99.90;;;;;;5033685;28;20274;-61
2023/10/14 01:18:24;;;;;;;21.10;3.08;;;11.80;99.90;;;;;;5036449;28;20186;-61
2023/10/14 01:20:50;;;;;;;18.95;3.22;;;11.70;99.90;;;;;;5013881;28;20330;-61
2023/10/14 01:23:17;;;;;;;19.08;3.10;;;11.70;99.90;;;;;;5033065;28;20217;-61
2023/10/14 01:25:47;;;;;;;19.50;3.40;;;11.70;99.90;;;;;;5033814;28;20187;-61
2023/10/14 01:28:23;;;;;;;17.85;3.00;;;11.70;99.90;;;;;;5043316;28;20563;-61
2023/10/14 01:31:07;;;;;;;14.90;2.95;;;11.60;99.90;;;;;;5027885;28;20268;-60
2023/10/14 01:33:36;;;;;;;16.77;3.05;;;11.60;99.90;;;;;;5016425;28;20589;-60
2023/10/14 01:36:02;;;;;;;14.90;3.22;;;11.60;99.90;;;;;;5031281;28;20195;-61
2023/10/14 01:38:31;;;;;;;11.68;2.63;;;11.50;99.90;;;;;;5035116;28;20183;-61
2023/10/14 01:40:57;;;;;;;18.65;3.38;;;11.50;99.90;;;;;;5042565;28;20226;-60
2023/10/14 01:43:30;;;;;;;15.90;2.67;;;11.50;99.90;;;;;;5045316;28;20238;-61
2023/10/14 01:48:25;;;;;;;17.73;2.58;;;11.40;99.90;;;;;;5029538;28;20227;-61
2023/10/14 01:50:55;;;;;;;16.25;2.53;;;11.40;99.90;;;;;;5046162;28;20203;-61
2023/10/14 01:53:27;;;;;;;19.20;2.70;;;11.30;99.90;;;;;;5026967;28;20556;-61
2023/10/14 01:55:54;;;;;;;13.98;3.08;;;11.40;99.90;;;;;;5032720;28;20191;-61
2023/10/14 01:58:22;;;;;;;16.10;2.72;;;11.30;99.90;;;;;;5025392;28;20277;-60
2023/10/14 02:00:58;;;;;;;16.02;2.70;;;11.30;99.90;;;;;;5029072;28;20211;-62
2023/10/14 02:03:24;;;;;;;22.38;2.80;;;11.30;99.90;;;;;;5033145;28;20216;-61
2023/10/14 02:05:53;;;;;;;20.40;2.85;;;11.30;99.90;;;;;;5047064;28;20222;-61
2023/10/14 02:08:23;;;;;;;14.43;2.55;;;11.30;99.90;;;;;;5029787;28;20187;-61
2023/10/14 02:10:50;;;;;;;19.90;3.08;;;11.40;99.90;;;;;;5029179;28;20211;-62
2023/10/14 02:13:18;;;;;;;12.77;2.38;;;11.30;99.90;;;;;;5048643;28;20234;-61
2023/10/14 02:15:47;;;;;;;13.10;2.72;;;11.30;99.90;;;;;;5044818;28;20253;-61
2023/10/14 02:18:22;;;;;;;13.82;2.63;;;11.30;99.90;;;;;;5031011;28;20179;-61
2023/10/14 02:21:04;;;;;;;11.20;2.90;;;11.30;99.90;;;;;;5028887;28;20563;-61
2023/10/14 02:23:45;;;;;;;13.27;2.80;;;11.30;99.90;;;;;;5045979;28;20214;-61
2023/10/14 02:26:24;;;;;;;12.52;2.58;;;11.30;99.90;;;;;;5032744;28;20191;-62
2023/10/14 02:28:53;;;;;;;13.90;2.78;;;11.30;99.90;;;;;;5052046;28;20520;-63
2023/10/14 02:31:29;;;;;;;20.52;2.95;;;11.30;99.90;;;;;;5048886;28;20670;-62
2023/10/14 02:33:57;;;;;;;14.23;2.55;;;11.20;99.90;;;;;;5022861;28;20186;-62
2023/10/14 02:36:34;;;;;;;14.50;2.20;;;11.20;99.90;;;;;;5030166;28;20724;-62
2023/10/14 02:39:00;;;;;;;18.08;3.00;;;11.20;99.90;;;;;;5053116;28;20651;-62
2023/10/14 02:41:27;;;;;;;11.23;2.70;;;11.20;99.90;;;;;;5025974;28;20222;-62
2023/10/14 02:46:54;;;;;;;13.85;2.55;;;11.20;99.90;;;;;;4999678;28;20187;-62
2023/10/14 02:49:24;;;;;;;18.17;2.60;;;11.20;99.90;;;;;;5033067;28;20608;-61
2023/10/14 02:51:52;;;;;;;18.33;3.08;;;11.20;99.90;;;;;;5040142;28;20219;-62
2023/10/14 02:54:34;;;;;;;16.58;3.40;;;11.20;99.90;;;;;;5046062;28;20183;-62
2023/10/14 02:57:01;;;;;;;16.75;2.90;;;11.30;99.90;;;;;;5049981;28;20190;-62
2023/10/14 02:59:38;;;;;;;24.52;2.78;;;11.30;99.90;;;;;;5047570;28;20211;-63
2023/10/14 03:04:44;;;;;;;20.83;2.90;;;11.20;99.90;;;;;;5029973;28;20187;-62
2023/10/14 03:07:10;;;;;;;13.30;2.30;;;11.30;99.90;;;;;;5048651;28;20677;-63
2023/10/14 03:09:36;;;;;;;15.93;3.08;;;11.30;99.90;;;;;;5013556;28;20196;-62
2023/10/14 03:12:01;;;;;;;23.10;3.40;;;11.30;99.90;;;;;;5032625;28;20183;-63
2023/10/14 03:14:30;;;;;;;24.90;3.00;;;11.30;99.90;;;;;;5006875;28;20284;-63
2023/10/14 03:16:57;;;;;;;21.90;2.92;;;11.20;99.90;;;;;;5045635;28;20215;-63
2023/10/14 03:19:25;;;;;;;23.77;3.03;;;11.30;99.90;;;;;;5050299;28;20191;-62
2023/10/14 03:21:58;;;;;;;14.30;2.47;;;11.30;99.90;;;;;;5039398;28;20268;-63
2023/10/14 03:24:26;;;;;;;17.50;3.07;;;11.20;99.90;;;;;;5047406;28;20459;-64
2023/10/14 03:27:02;;;;;;;17.92;2.90;;;11.20;99.90;;;;;;5029187;28;20694;-64
2023/10/14 03:29:28;;;;;;;12.70;2.72;;;11.20;99.90;;;;;;5028633;28;20214;-63
2023/10/14 03:31:55;;;;;;;24.77;3.35;;;11.20;99.90;;;;;;5048208;28;20175;-63
2023/10/14 03:34:30;;;;;;;13.48;3.05;;;11.20;99.90;;;;;;5050018;28;20222;-62
2023/10/14 03:37:09;;;;;;;31.05;3.20;;;11.20;99.90;;;;;;5041592;28;20254;-63
2023/10/14 03:39:46;;;;;;;19.48;2.85;;;11.20;99.90;;;;;;5049310;28;20187;-63
2023/10/14 03:42:15;;;;;;;16.70;3.15;;;11.20;99.90;;;;;;5042257;28;20280;-65
2023/10/14 03:44:44;;;;;;;20.00;3.05;;;11.20;99.90;;;;;;5026324;28;20205;-65
2023/10/14 03:47:16;;;;;;;23.05;3.03;;;11.20;99.90;;;;;;5037329;28;20214;-64
2023/10/14 03:49:43;;;;;;;15.98;2.75;;;11.30;99.90;;;;;;5049098;28;20180;-64
2023/10/14 03:52:11;;;;;;;15.45;2.70;;;11.20;99.90;;;;;;5047696;28;20190;-64
2023/10/14 03:54:43;;;;;;;18.63;3.20;;;11.20;99.90;;;;;;5035680;28;20210;-62
2023/10/14 03:57:17;;;;;;;12.95;2.65;;;11.30;99.90;;;;;;5049759;28;20187;-63
2023/10/14 03:59:47;;;;;;;19.75;3.10;;;11.30;99.90;;;;;;5035495;28;20197;-63
2023/10/14 04:02:18;;;;;;;25.48;2.97;;;11.30;99.90;;;;;;5047420;28;20222;-63
2023/10/14 04:04:45;;;;;;;13.30;2.25;;;11.30;99.90;;;;;;5033905;28;20211;-63
2023/10/14 04:09:44;;;;;;;15.20;2.40;;;11.40;99.90;;;;;;5049714;28;20184;-64
2023/10/14 04:12:12;;;;;;;18.50;2.58;;;11.40;99.90;;;;;;5046496;28;20180;-62
2023/10/14 04:14:40;;;;;;;18.70;2.70;;;11.50;99.90;;;;;;5048062;28;20687;-65
2023/10/14 04:17:55;;;;;;;11.77;2.35;;;11.50;99.90;;;;;;5019975;28;20188;-63
2023/10/14 04:19:57;;;;;;;18.02;2.65;;;11.60;99.90;;;;;;5029864;28;20234;-64
2023/10/14 04:24:51;;;;;;;17.83;2.80;;;11.60;99.90;;;;;;5046696;28;20191;-65
2023/10/14 04:27:21;;;;;;;12.20;2.53;;;11.60;99.90;;;;;;5042047;28;20182;-66
2023/10/14 04:29:58;;;;;;;13.35;2.83;;;11.60;99.90;;;;;;5030982;28;20556;-68
2023/10/14 04:32:41;;;;;;;24.00;2.75;;;11.60;99.90;;;;;;5030862;28;20199;-66
2023/10/14 04:35:08;;;;;;;16.48;2.80;;;11.60;99.90;;;;;;5028248;28;20559;-66
2023/10/14 04:37:52;;;;;;;14.38;2.60;;;11.70;99.90;;;;;;5031401;28;20180;-65
2023/10/14 04:45:51;;;;;;;18.27;2.75;;;11.90;99.90;;;;;;5031856;28;20195;-66
2023/10/14 04:48:27;;;;;;;12.20;2.67;;;11.80;99.90;;;;;;5041957;28;20619;-66
2023/10/14 04:51:00;;;;;;;24.23;2.92;;;11.80;99.90;;;;;;5043448;28;20290;-70
2023/10/14 04:53:31;;;;;;;13.40;2.90;;;11.80;99.90;;;;;;5040619;28;20183;-67
2023/10/14 04:56:01;;;;;;;16.40;3.03;;;11.80;99.90;;;;;;5042381;28;20202;-68
2023/10/14 04:58:27;;;;;;;10.18;2.65;;;11.70;99.90;;;;;;5032389;28;20188;-67
2023/10/14 05:01:00;;;;;;;14.13;3.15;;;11.70;99.90;;;;;;5026880;28;20252;-68
2023/10/14 05:03:29;;;;;;;21.92;2.60;;;11.70;99.90;;;;;;5042335;28;20186;-65
2023/10/14 05:05:56;;;;;;;19.35;3.00;;;11.60;99.90;;;;;;5031617;28;20183;-66
2023/10/14 05:08:24;;;;;;;20.63;2.88;;;11.60;99.90;;;;;;5043695;28;20210;-66
2023/10/14 05:10:51;;;;;;;16.67;2.47;;;11.50;99.90;;;;;;5042915;28;20179;-66
2023/10/14 05:13:31;;;;;;;16.25;2.15;;;11.50;99.90;;;;;;5047185;28;20222;-67
2023/10/14 05:16:20;;;;;;;23.80;3.22;;;11.50;99.90;;;;;;5043403;28;20182;-66
2023/10/14 05:19:07;;;;;;;14.85;2.65;;;11.50;99.90;;;;;;5045304;28;20651;-66
2023/10/14 05:21:37;;;;;;;21.42;2.60;;;11.40;99.90;;;;;;5042481;28;20214;-68
2023/10/14 05:24:10;;;;;;;13.82;2.63;;;11.40;99.90;;;;;;5037196;28;20188;-66
2023/10/14 05:26:44;;;;;;;13.95;2.85;;;11.40;99.90;;;;;;5038876;28;20364;-68
2023/10/14 05:29:19;;;;;;;16.10;2.92;;;11.30;99.90;;;;;;5032524;28;20179;-67
2023/10/14 05:31:49;;;;;;;18.70;2.65;;;11.30;99.90;;;;;;5044199;28;20697;-67
2023/10/14 05:34:26;;;;;;;18.67;2.50;;;11.30;99.90;;;;;;5046544;28;20191;-68
2023/10/14 05:36:55;;;;;;;20.08;2.80;;;11.30;99.90;;;;;;5039269;28;20194;-69
2023/10/14 05:39:22;;;;;;;22.50;3.65;;;11.30;99.90;;;;;;5039731;28;20648;-70
2023/10/14 05:41:48;;;;;;;21.15;2.55;;;11.30;99.90;;;;;;5033286;28;20267;-69
2023/10/14 05:44:15;;;;;;;18.55;2.63;;;11.20;99.90;;;;;;5022100;28;20195;-68
2023/10/14 05:46:41;;;;;;;17.15;2.83;;;11.20;99.90;;;;;;5010846;28;20187;-68
2023/10/14 05:49:08;;;;;;;16.13;2.80;;;11.20;99.90;;;;;;5041912;28;20198;-69
2023/10/14 05:51:35;;;;;;;19.42;3.13;;;11.20;99.90;;;;;;5032345;28;20188;-68
2023/10/14 05:54:01;;;;;;;19.95;3.50;;;11.20;99.90;;;;;;5053589;28;20619;-66
2023/10/14 05:56:28;;;;;;;16.25;3.13;;;11.20;99.90;;;;;;5048495;28;20262;-71
2023/10/14 05:58:54;;;;;;;19.95;2.92;;;11.20;99.90;;;;;;5037033;28;20187;-72
2023/10/14 06:01:20;;;;;;;18.52;2.97;;;11.20;99.90;;;;;;5042197;28;20677;-68
2023/10/14 06:03:49;;;;;;;19.25;2.95;;;11.20;99.90;;;;;;5011583;28;20561;-67
2023/10/14 06:06:16;;;;;;;22.52;2.72;;;11.20;99.90;;;;;;5048716;28;20214;-69
2023/10/14 06:08:46;;;;;;;16.88;3.00;;;11.20;99.90;;;;;;5050475;28;20692;-67
2023/10/14 06:11:13;;;;;;;16.40;3.20;;;11.20;99.90;;;;;;5044373;28;20187;-72
2023/10/14 06:13:39;;;;;;;15.43;2.90;;;11.20;99.90;;;;;;5048704;28;20203;-66
2023/10/14 06:16:12;;;;;;;16.38;3.28;;;11.20;99.90;;;;;;5046448;28;20190;-68
2023/10/14 06:18:39;;;;;;;13.90;3.13;;;11.20;99.90;;;;;;5051234;28;20646;-67
2023/10/14 06:21:06;;;;;;;19.55;3.20;;;11.20;99.90;;;;;;5040764;28;20273;-68
2023/10/14 06:23:33;;;;;;;17.05;3.50;;;11.20;99.90;;;;;;5046761;28;20278;-69
2023/10/14 06:25:59;;;;;;;17.83;3.28;;;11.20;99.90;;;;;;5042478;28;20179;-69
2023/10/14 06:28:27;;;;;;;19.13;3.38;;;11.20;99.90;;;;;;5033202;28;20192;-66
2023/10/14 06:30:54;;;;;;;16.92;2.90;;;11.20;99.90;;;;;;5042803;28;20251;-66
2023/10/14 06:33:26;;;;;;;20.85;2.92;;;11.20;99.90;;;;;;5039059;28;20587;-70
2023/10/14 06:35:52;;;;;;;21.27;2.78;;;11.30;99.90;;;;;;5034711;28;20210;-72
2023/10/14 06:38:19;;;;;;;18.67;2.65;;;11.30;99.90;;;;;;5036727;28;20670;-70
2023/10/14 06:40:52;;;;;;;15.25;2.50;;;11.30;99.90;;;;;;5039083;28;20274;-69
2023/10/14 06:43:19;;;;;;;17.63;2.50;;;11.30;99.90;;;;;;5047037;28;20219;-70
2023/10/14 06:45:51;;;;;;;14.55;2.85;;;11.30;99.90;;;;;;5046167;28;20257;-70
2023/10/14 06:48:17;;;;;;;17.00;2.88;;;11.40;99.90;;;;;;5037410;28;20512;-69
2023/10/14 06:50:47;;;;;;;18.30;2.88;;;11.40;99.90;;;;;;5046855;28;20565;-70
2023/10/14 06:53:15;;;;;;;14.60;2.92;;;11.40;99.90;;;;;;5037916;28;20226;-68
2023/10/14 06:55:41;;;;;;;12.93;2.58;;;11.40;99.90;;;;;;5029128;28;20229;-71
2023/10/14 06:58:19;;;;;;;15.45;2.92;;;11.40;99.90;;;;;;5027842;28;20180;-71
2023/10/14 07:00:45;;;;;;;11.27;2.80;;;11.50;99.90;;;;;;5031114;28;20187;-70
2023/10/14 07:03:14;;;;;;;15.93;3.60;;;11.50;99.90;;;;;;5046423;28;21001;-68
2023/10/14 07:05:48;;;;;;;14.85;2.47;;;11.50;99.90;;;;;;5038094;28;20188;-70
2023/10/14 07:08:15;;;;;;;13.90;3.28;;;11.50;99.90;;;;;;5043892;28;20250;-67
2023/10/14 07:10:42;;;;;;;15.80;2.97;;;11.50;99.90;;;;;;5046546;28;20182;-69
2023/10/14 07:13:08;;;;;;;13.25;2.75;;;11.50;99.90;;;;;;5041368;28;20624;-71
2023/10/14 07:15:38;;;;;;;18.38;3.00;;;11.60;99.90;;;;;;5047337;28;20223;-69
2023/10/14 07:18:04;;;;;;;20.15;2.80;;;11.60;99.90;;;;;;5050998;28;20529;-70
2023/10/14 07:20:30;;;;;;;25.77;4.20;;;11.60;99.90;;;;;;5048702;28;20655;-72
2023/10/14 07:23:01;;;;;;;17.92;3.45;;;11.60;99.90;;;;;;5049091;28;20925;-71
2023/10/14 07:25:40;;;;;;;20.63;3.25;;;11.70;99.90;;;;;;5046702;28;20194;-69
2023/10/14 07:28:09;;;;;;;19.25;3.08;;;11.70;99.90;;;;;;5029659;28;20175;-70
2023/10/14 07:30:35;;;;;;;19.38;3.33;;;11.80;99.90;;;;;;5044403;28;20191;-70
2023/10/14 07:33:06;;;;;;;19.60;3.30;;;11.80;99.90;;;;;;5032532;28;20193;-79
2023/10/14 07:35:32;;;;;;;22.05;3.30;;;11.90;99.90;;;;;;5024374;28;20188;-75
2023/10/14 07:37:58;;;;;;;18.17;3.78;;;12.00;99.90;;;;;;5047648;28;20211;-71
2023/10/14 07:40:27;;;;;;;19.48;3.47;;;12.10;99.90;;;;;;5040094;28;20187;-73
2023/10/14 07:42:54;;;;;;;19.00;3.75;;;12.20;99.90;;;;;;5048646;28;20768;-72
2023/10/14 07:45:21;;;;;;;14.10;3.17;;;12.30;99.90;;;;;;5045247;28;20192;-74
2023/10/14 07:47:48;;;;;;;20.77;3.63;;;12.50;99.90;;;;;;5041937;28;20278;-73
2023/10/14 07:50:15;;;;;;;13.82;3.00;;;12.50;99.90;;;;;;5032015;28;20207;-73
2023/10/14 07:52:42;;;;;;;10.77;2.53;;;12.60;99.90;;;;;;5048517;28;20175;-73
2023/10/14 07:55:15;;;;;;;20.38;3.22;;;12.70;99.90;;;;;;5024557;28;20675;-72
2023/10/14 07:57:46;;;;;;;17.33;2.80;;;12.70;99.90;;;;;;5041274;28;20230;-70
2023/10/14 08:00:13;;;;;;;15.23;3.20;;;12.80;99.90;;;;;;5016909;28;20286;-63
2023/10/14 08:02:43;;;;;;;13.45;3.00;;;12.80;99.90;;;;;;5046578;28;20748;-63
2023/10/14 08:05:10;;;;;;;17.92;3.45;;;12.80;99.90;;;;;;5046656;28;20210;-66
2023/10/14 08:07:46;;;;;;;12.23;3.00;;;12.80;99.90;;;;;;5048078;28;20172;-67
2023/10/14 08:10:18;;;;;;;13.43;2.53;;;12.80;99.90;;;;;;5048396;28;20195;-64
2023/10/14 08:12:50;;;;;;;13.82;2.35;;;12.90;99.90;;;;;;5041872;28;20182;-65
2023/10/14 08:15:17;;;;;;;15.90;2.78;;;12.90;99.90;;;;;;5044369;28;20755;-66
2023/10/14 08:17:44;;;;;;;14.65;2.30;;;13.00;99.90;;;;;;5040813;28;20179;-66
2023/10/14 08:20:13;;;;;;;16.95;2.83;;;13.00;99.90;;;;;;5042792;28;20186;-66
2023/10/14 08:22:47;;;;;;;13.35;2.67;;;13.00;99.90;;;;;;5046184;28;20207;-66
2023/10/14 08:25:14;;;;;;;11.98;2.58;;;13.00;99.90;;;;;;5040404;28;20187;-65
2023/10/14 08:27:40;;;;;;;16.15;3.00;;;13.10;99.90;;;;;;5030277;28;20627;-65
2023/10/14 08:30:12;;;;;;;14.40;2.70;;;13.10;99.90;;;;;;5030816;28;20187;-65
2023/10/14 08:32:43;;;;;;;14.05;2.75;;;13.10;99.90;;;;;;5048342;28;20265;-64
2023/10/14 08:35:16;;;;;;;14.27;2.85;;;13.20;99.90;;;;;;5044681;28;20198;-65
2023/10/14 08:37:52;;;;;;;20.25;2.67;;;13.20;99.90;;;;;;5040656;28;20647;-65
2023/10/14 08:40:19;;;;;;;12.32;2.58;;;13.30;99.90;;;;;;5042426;28;20646;-65
2023/10/14 08:42:57;;;;;;;16.20;2.75;;;13.30;99.90;;;;;;5045911;28;20250;-64
2023/10/14 08:45:28;;;;;;;15.10;2.72;;;13.30;99.90;;;;;;5044630;28;20233;-72
2023/10/14 08:47:58;;;;;;;14.55;2.40;;;13.40;99.90;;;;;;5027009;28;20191;-65
2023/10/14 08:50:25;;;;;;;13.35;2.90;;;13.40;99.90;;;;;;5042160;28;20182;-66
2023/10/14 08:52:56;;;;;;;9.43;2.20;;;13.50;99.90;;;;;;5042038;28;20226;-63
2023/10/14 08:55:22;;;;;;;12.10;2.25;;;13.50;99.90;;;;;;5045560;28;20182;-63
2023/10/14 08:57:50;;;;;;;10.25;2.40;;;13.60;99.90;;;;;;5044786;28;20270;-63
2023/10/14 09:00:23;;;;;;;11.05;2.22;;;13.60;99.90;;;;;;5034980;28;20233;-62
2023/10/14 09:02:53;;;;;;;13.77;2.55;;;13.70;99.90;;;;;;5036631;28;20239;-64
2023/10/14 09:05:19;;;;;;;15.57;2.38;;;13.70;99.90;;;;;;5045059;28;20260;-63
2023/10/14 09:07:49;;;;;;;11.23;2.45;;;13.80;99.90;;;;;;5031812;28;20184;-63
2023/10/14 09:10:18;;;;;;;15.07;2.92;;;13.80;99.90;;;;;;5029922;28;20183;-62
2023/10/14 09:13:03;;;;;;;15.07;2.40;;;13.90;99.90;;;;;;5024195;28;20190;-63
2023/10/14 09:15:32;;;;;;;16.55;3.40;;;13.90;99.90;;;;;;5046259;28;20618;-62
2023/10/14 09:17:58;;;;;;;11.57;2.65;;;14.00;99.90;;;;;;5049151;28;20190;-62
2023/10/14 09:20:34;;;;;;;16.13;2.90;;;14.10;99.90;;;;;;5027172;28;21432;-64
2023/10/14 09:23:19;;;;;;;10.73;2.15;;;14.30;99.90;;;;;;5043860;28;20281;-62
2023/10/14 09:25:53;;;;;;;12.63;2.40;;;14.40;99.90;;;;;;5051175;28;20647;-63
2023/10/14 09:28:20;;;;;;;11.18;1.80;;;14.50;99.90;;;;;;5032564;28;20178;-62
2023/10/14 09:30:51;;;;;;;12.10;2.10;;;14.40;99.90;;;;;;5040069;28;20199;-63
2023/10/14 09:33:21;;;;;;;18.15;2.55;;;14.30;99.90;;;;;;5033466;28;20643;-63
2023/10/14 09:35:50;;;;;;;12.93;2.47;;;14.20;99.90;;;;;;5031626;28;20191;-65
2023/10/14 09:38:19;;;;;;;8.85;2.13;;;14.10;99.90;;;;;;5048962;28;20237;-62
2023/10/14 09:40:51;;;;;;;9.93;2.22;;;14.00;99.90;;;;;;5047035;28;20180;-66
2023/10/14 09:43:18;;;;;;;16.70;2.42;;;13.90;99.90;;;;;;5036619;28;20222;-63
2023/10/14 09:45:47;;;;;;;11.35;3.03;;;13.90;99.90;;;;;;5024100;28;20188;-63
2023/10/14 09:48:15;;;;;;;12.95;2.47;;;13.90;99.90;;;;;;5028822;28;20193;-62
2023/10/14 09:50:44;;;;;;;13.75;2.33;;;13.90;99.90;;;;;;5047802;28;20535;-65
2023/10/14 09:53:14;;;;;;;13.60;3.03;;;13.90;99.90;;;;;;5050086;28;20183;-65
2023/10/14 09:55:43;;;;;;;11.18;2.22;;;14.00;99.90;;;;;;5037545;28;20674;-62
2023/10/14 09:58:13;;;;;;;15.27;2.70;;;14.10;99.90;;;;;;5028352;28;20188;-63
2023/10/14 10:00:40;;;;;;;11.70;2.22;;;14.10;99.90;;;;;;5043771;28;20183;-68
2023/10/14 10:03:10;;;;;;;9.95;2.33;;;14.20;99.90;;;;;;5037436;28;20648;-64
2023/10/14 10:05:43;;;;;;;12.07;2.28;;;14.20;99.90;;;;;;5039394;28;20206;-63
2023/10/14 10:08:26;;;;;;;7.20;1.95;;;14.30;99.90;;;;;;5036544;28;20646;-64
2023/10/14 10:10:53;;;;;;;11.25;2.17;;;14.30;99.90;;;;;;5050086;28;20179;-64
2023/10/14 10:13:23;;;;;;;8.85;2.00;;;14.20;99.90;;;;;;5052044;28;20187;-64
2023/10/14 10:15:51;;;;;;;8.55;1.73;;;14.10;99.90;;;;;;5042054;28;20191;-64
2023/10/14 10:18:17;;;;;;;9.73;2.13;;;13.90;99.90;;;;;;5048907;28;20233;-62
2023/10/14 10:20:58;;;;;;;11.15;2.10;;;13.80;99.90;;;;;;5029959;28;20179;-64
2023/10/14 10:23:29;;;;;;;8.18;1.63;;;13.60;99.90;;;;;;5048396;28;20651;-62
2023/10/14 10:25:55;;;;;;;15.88;1.98;;;13.50;99.90;;;;;;5040363;28;20244;-64
2023/10/14 10:28:27;;;;;;;6.82;1.55;;;13.40;99.90;;;;;;5031797;28;20233;-64
2023/10/14 10:30:55;;;;;;;9.27;2.22;;;13.40;99.90;;;;;;5047613;28;20183;-64
2023/10/14 10:33:24;;;;;;;10.02;1.88;;;13.40;99.90;;;;;;5033079;28;20184;-64
2023/10/14 10:36:03;;;;;;;11.18;2.08;;;13.50;99.90;;;;;;5045893;28;20191;-63
2023/10/14 10:38:36;;;;;;;9.25;2.08;;;13.60;99.90;;;;;;5052156;28;20540;-63
2023/10/14 10:41:26;;;;;;;7.63;1.67;;;13.60;99.90;;;;;;5046077;28;20285;-63
2023/10/14 10:44:03;;;;;;;11.00;2.00;;;13.70;99.90;;;;;;5032722;28;20234;-62
2023/10/14 10:46:44;;;;;;;8.65;1.77;;;13.80;99.90;;;;;;5046400;28;20175;-63
2023/10/14 10:49:13;;;;;;;12.65;2.10;;;13.80;99.90;;;;;;5045194;28;20238;-64
2023/10/14 10:51:52;;;;;;;8.20;2.22;;;13.90;99.90;;;;;;5047947;28;20180;-64
2023/10/14 10:54:22;;;;;;;8.25;1.98;;;14.00;99.90;;;;;;5051151;28;20723;-64
2023/10/14 10:56:48;;;;;;;7.25;2.05;;;14.10;99.90;;;;;;5021639;28;20184;-64
2023/10/14 10:59:14;;;;;;;11.73;2.05;;;14.30;99.90;;;;;;5034356;28;20220;-64
2023/10/14 11:01:41;;;;;;;11.38;2.33;;;14.50;99.90;;;;;;5012980;28;20678;-64
2023/10/14 11:04:12;;;;;;;12.25;2.13;;;14.60;99.90;;;;;;5000659;28;20762;-66
2023/10/14 11:06:38;;;;;;;13.27;2.30;;;14.60;99.90;;;;;;5044441;28;20229;-63
2023/10/14 11:09:05;;;;;;;14.57;2.67;;;14.50;99.90;;;;;;5048009;28;20195;-65
2023/10/14 11:11:33;;;;;;;14.00;2.28;;;14.30;99.90;;;;;;5025643;28;20195;-64
2023/10/14 11:14:02;;;;;;;15.27;2.95;;;14.10;99.90;;;;;;5048185;28;20190;-63
2023/10/14 11:16:29;;;;;;;12.32;2.50;;;14.00;99.90;;;;;;5030553;28;20187;-64
2023/10/14 11:18:57;;;;;;;17.65;2.42;;;13.90;99.90;;;;;;5048713;28;20189;-63
2023/10/14 11:21:27;;;;;;;12.93;2.20;;;13.90;99.90;;;;;;5024477;28;20683;-64
2023/10/14 11:23:54;;;;;;;12.73;2.67;;;13.90;99.90;;;;;;5051322;28;20191;-63
2023/10/14 11:26:21;;;;;;;16.58;2.67;;;14.00;99.90;;;;;;5038292;28;20195;-65
2023/10/14 11:28:48;;;;;;;12.82;2.53;;;14.20;99.90;;;;;;5050605;28;20179;-64
2023/10/14 11:31:14;;;;;;;14.75;2.65;;;14.30;99.90;;;;;;5044040;28;20240;-62
2023/10/14 11:33:47;;;;;;;16.52;2.35;;;13.90;99.90;;;;;;5051366;28;20191;-63
2023/10/14 11:36:19;;;;;;;14.55;2.40;;;13.50;99.90;;;;;;5021272;28;20233;-63
2023/10/14 11:38:48;;;;;;;10.52;2.40;;;13.10;99.90;;;;;;5044028;28;20242;-61
2023/10/14 11:41:16;;;;;;;7.53;2.00;;;12.90;99.90;;;;;;5027775;28;20313;-62
2023/10/14 11:43:46;;;;;;;16.02;2.83;;;12.80;99.90;;;;;;5035188;28;20239;-61
2023/10/14 11:46:12;;;;;;;9.93;2.30;;;12.70;99.90;;;;;;5043993;28;20199;-62
2023/10/14 11:48:43;;;;;;;8.82;1.95;;;12.70;99.90;;;;;;5040195;28;20176;-61
2023/10/14 11:51:12;;;;;;;15.32;2.72;;;12.70;99.90;;;;;;5046586;28;20183;-62
2023/10/14 11:53:45;;;;;;;12.85;2.92;;;12.80;99.90;;;;;;5009580;28;20191;-64
2023/10/14 11:56:15;;;;;;;11.23;2.78;;;12.90;99.90;;;;;;5048495;28;20332;-61
2023/10/14 11:58:41;;;;;;;14.38;2.90;;;13.00;99.90;;;;;;5021161;28;20205;-61
2023/10/14 12:01:09;;;;;;;12.88;2.50;;;13.10;99.90;;;;;;5041683;28;20214;-62
2023/10/14 12:03:36;;;;;;;13.60;2.70;;;13.20;99.90;;;;;;5042635;28;20293;-62
2023/10/14 12:06:03;;;;;;;8.20;2.40;;;13.30;99.90;;;;;;5041529;28;20639;-63
2023/10/14 12:08:30;;;;;;;11.98;2.80;;;13.20;99.90;;;;;;5050820;28;20673;-62
2023/10/14 12:10:59;;;;;;;12.63;2.63;;;13.20;99.90;;;;;;5042282;28;20183;-63
2023/10/14 12:13:26;;;;;;;16.83;2.83;;;13.20;99.90;;;;;;5043264;28;20187;-61
2023/10/14 12:15:52;;;;;;;17.40;2.92;;;13.20;99.90;;;;;;5044425;28;20183;-65
2023/10/14 12:18:20;;;;;;;13.45;2.67;;;13.20;99.90;;;;;;5049516;28;20195;-62
2023/10/14 12:20:48;;;;;;;10.55;2.83;;;13.20;99.90;;;;;;5039633;28;20648;-63
2023/10/14 12:23:14;;;;;;;16.55;2.40;;;13.30;99.90;;;;;;5047212;28;20202;-60
2023/10/14 12:25:40;;;;;;;11.57;2.50;;;13.30;99.90;;;;;;5043469;28;20176;-62
2023/10/14 12:28:06;;;;;;;8.70;2.00;;;13.40;99.90;;;;;;5045491;28;20217;-63
2023/10/14 12:30:42;;;;;;;12.25;2.45;;;13.50;99.90;;;;;;5044709;28;20184;-62
2023/10/14 12:33:18;;;;;;;9.23;2.60;;;13.50;99.90;;;;;;5027863;28;20191;-62
2023/10/14 12:35:45;;;;;;;10.90;2.30;;;13.60;98.60;;;;;;5039869;28;20188;-60
2023/10/14 12:38:11;;;;;;;11.15;2.65;;;13.60;98.50;;;;;;5043112;28;20194;-64
2023/10/14 12:40:39;;;;;;;11.18;2.20;;;13.70;97.70;;;;;;5041135;28;20196;-65
2023/10/14 12:43:05;;;;;;;8.13;2.10;;;13.70;98.70;;;;;;5034258;28;20787;-65
2023/10/14 12:45:32;;;;;;;7.85;2.22;;;13.80;98.40;;;;;;5034602;28;20188;-65
2023/10/14 12:48:09;;;;;;;10.85;2.22;;;13.80;96.80;;;;;;5044094;28;20259;-62
2023/10/14 12:50:46;;;;;;;7.78;2.08;;;13.90;95.70;;;;;;5041110;28;20174;-63
2023/10/14 12:53:13;;;;;;;7.60;1.77;;;13.90;95.40;;;;;;5046429;28;20178;-64
2023/10/14 12:55:44;;;;;;;14.85;2.33;;;13.90;95.40;;;;;;5040344;28;20267;-63
2023/10/14 12:58:12;;;;;;;14.70;2.22;;;13.90;96.00;;;;;;5029864;28;20186;-64
2023/10/14 13:00:39;;;;;;;12.52;2.63;;;13.90;96.00;;;;;;5051523;28;20666;-63
2023/10/14 13:03:09;;;;;;;10.65;2.40;;;13.90;96.40;;;;;;5049273;28;20210;-64
2023/10/14 13:05:37;;;;;;;16.33;2.75;;;13.90;97.10;;;;;;5040252;28;20193;-63
2023/10/14 13:08:04;;;;;;;11.23;2.83;;;13.90;97.90;;;;;;5048430;28;20179;-64
2023/10/14 13:10:32;;;;;;;12.45;2.78;;;14.00;98.40;;;;;;5025248;28;20547;-64